Time;durP1;ratioP1;P1;durP2;ratioP2;P2;SDS_P1;SDS_P2;PMS_P1;PMS_P2;Temp;Humidity;BMP_temperature;BMP_pressure;BME280_temperature;BME280_humidity;BME280_pressure;Samples;Min_cycle;Max_cycle;Signal;HPM_P1;HPM_P2
2022/02/04 00:04:24;;;;;;;;;;;7.90;99.90;;;;;;8383637;28;19998;-73
2022/02/04 00:29:52;;;;;;;;;;;8.00;99.90;;;;;;8387992;28;20462;-73
2022/02/04 00:33:59;;;;;;;;;;;8.00;99.90;;;;;;8386506;28;19935;-73
2022/02/04 00:38:07;;;;;;;;;;;8.00;99.90;;;;;;8362261;28;19920;-73
2022/02/04 00:42:11;;;;;;;;;;;8.00;99.90;;;;;;8387392;28;19947;-73
2022/02/04 00:46:17;;;;;;;;;;;8.00;99.90;;;;;;8384215;28;19920;-73
2022/02/04 00:55:26;;;;;;;;;;;8.00;99.90;;;;;;8395201;28;20340;-73
2022/02/04 01:30:14;;;;;;;;;;;7.90;99.90;;;;;;8385939;28;19967;-73
2022/02/04 01:34:16;;;;;;;;;;;7.90;99.90;;;;;;8389199;28;20431;-73
2022/02/04 01:38:17;;;;;;;;;;;7.90;99.90;;;;;;8376504;28;19924;-73
2022/02/04 01:42:19;;;;;;;;;;;7.90;99.90;;;;;;8385916;28;19960;-73
2022/02/04 01:46:20;;;;;;;;;;;7.90;99.90;;;;;;8387904;28;19996;-73
2022/02/04 01:50:26;;;;;;;;;;;7.90;99.90;;;;;;8391471;28;20368;-73
2022/02/04 01:54:28;;;;;;;;;;;7.90;99.90;;;;;;8377316;28;20395;-73
2022/02/04 01:58:29;;;;;;;;;;;7.90;99.90;;;;;;8385957;28;19924;-73
2022/02/04 02:02:31;;;;;;;;;;;8.00;99.90;;;;;;8365414;28;19966;-73
2022/02/04 02:06:46;;;;;;;;;;;7.90;99.90;;;;;;8379529;28;19928;-73
2022/02/04 02:10:48;;;;;;;;;;;8.00;99.90;;;;;;8361938;28;20280;-73
2022/02/04 02:15:01;;;;;;;;;;;8.00;99.90;;;;;;8381716;28;19967;-73
2022/02/04 02:41:35;;;;;;;;;;;7.90;99.90;;;;;;8387831;28;19932;-73
2022/02/04 02:45:27;;;;;;;;;;;7.90;99.90;;;;;;8390073;28;19920;-73
2022/02/04 02:54:03;;;;;;;;;;;7.90;99.90;;;;;;8390795;28;19975;-73
2022/02/04 03:02:09;;;;;;;;;;;7.90;99.90;;;;;;8388465;28;19983;-73
2022/02/04 03:06:11;;;;;;;;;;;7.90;99.90;;;;;;8391040;28;19928;-73
2022/02/04 03:10:12;;;;;;;;;;;7.90;99.90;;;;;;8390058;28;20379;-73
2022/02/04 03:14:14;;;;;;;;;;;7.90;99.90;;;;;;8401999;28;20007;-73
2022/02/04 03:18:23;;;;;;;;;;;7.90;99.90;;;;;;8400820;28;20335;-73
2022/02/04 03:22:25;;;;;;;;;;;7.90;99.90;;;;;;8391960;28;19924;-73
2022/02/04 03:26:39;;;;;;;;;;;7.90;99.90;;;;;;8380418;28;19961;-73
2022/02/04 03:30:42;;;;;;;;;;;7.90;99.90;;;;;;8386597;28;20028;-73
2022/02/04 03:34:44;;;;;;;;;;;7.90;99.90;;;;;;8387955;28;19964;-73
2022/02/04 03:38:46;;;;;;;;;;;7.90;99.90;;;;;;8386247;28;20275;-73
2022/02/04 03:42:48;;;;;;;;;;;7.90;99.90;;;;;;8391198;28;19939;-73
2022/02/04 03:46:49;;;;;;;;;;;8.00;99.90;;;;;;8402470;28;19959;-72
2022/02/04 03:50:51;;;;;;;;;;;8.00;99.90;;;;;;8382725;28;19929;-73
2022/02/04 03:54:54;;;;;;;;;;;7.90;99.90;;;;;;8369517;28;20261;-73
2022/02/04 03:58:55;;;;;;;;;;;7.90;99.90;;;;;;8382840;28;20083;-73
2022/02/04 04:02:57;;;;;;;;;;;7.90;99.90;;;;;;8386072;28;19967;-73
2022/02/04 04:06:59;;;;;;;;;;;7.90;99.90;;;;;;8389081;28;20428;-73
2022/02/04 04:11:01;;;;;;;;;;;7.90;99.90;;;;;;8390396;28;19928;-73
2022/02/04 04:15:07;;;;;;;;;;;7.90;99.90;;;;;;8389295;28;20331;-73
2022/02/04 04:19:09;;;;;;;;;;;7.90;99.90;;;;;;8388304;28;20023;-73
2022/02/04 04:23:13;;;;;;;;;;;7.90;99.90;;;;;;8386897;28;20035;-73
2022/02/04 04:27:15;;;;;;;;;;;7.90;99.90;;;;;;8392768;28;19967;-73
2022/02/04 04:31:18;;;;;;;;;;;8.00;99.90;;;;;;8390765;28;20007;-73
2022/02/04 04:35:23;;;;;;;;;;;8.00;99.90;;;;;;8365119;28;20406;-73
2022/02/04 04:39:31;;;;;;;;;;;8.00;99.90;;;;;;8370157;28;19925;-73
2022/02/04 05:30:38;;;;;;;;;;;8.00;99.90;;;;;;8385605;28;19963;-73
2022/02/04 05:34:40;;;;;;;;;;;8.00;99.90;;;;;;8394306;28;19964;-73
2022/02/04 05:38:41;;;;;;;;;;;8.00;99.90;;;;;;8378139;28;19967;-73
2022/02/04 05:42:56;;;;;;;;;;;8.00;99.90;;;;;;8366270;28;19924;-73
2022/02/04 05:47:04;;;;;;;;;;;8.00;99.90;;;;;;8386133;28;19925;-73
2022/02/04 06:04:33;;;;;;;;;;;8.00;99.90;;;;;;8367330;28;19932;-73
2022/02/04 06:25:56;;;;;;;;;;;8.00;99.90;;;;;;8391971;28;20229;-73
2022/02/04 06:29:58;;;;;;;;;;;8.00;99.90;;;;;;8385743;28;19971;-73
2022/02/04 06:33:59;;;;;;;;;;;8.00;99.90;;;;;;8389418;28;20011;-74
2022/02/04 06:38:02;;;;;;;;;;;8.00;99.90;;;;;;8391772;28;19951;-73
2022/02/04 06:42:04;;;;;;;;;;;8.00;99.90;;;;;;8376382;28;19931;-73
2022/02/04 06:46:06;;;;;;;;;;;8.10;99.90;;;;;;8376533;28;19941;-73
2022/02/04 06:50:08;;;;;;;;;;;8.10;99.90;;;;;;8373571;28;19964;-73
2022/02/04 06:54:09;;;;;;;;;;;8.10;99.90;;;;;;8380171;28;19929;-74
2022/02/04 06:58:12;;;;;;;;;;;8.10;99.90;;;;;;8390390;28;20471;-73
2022/02/04 07:02:14;;;;;;;;;;;8.20;99.90;;;;;;8386332;28;19968;-73
2022/02/04 07:06:17;;;;;;;;;;;8.20;99.90;;;;;;8387693;28;19968;-73
2022/02/04 07:23:12;;;;;;;;;;;8.20;99.90;;;;;;8393124;28;20016;-73
2022/02/04 07:27:14;;;;;;;;;;;8.20;99.90;;;;;;8391540;28;19951;-73
2022/02/04 07:31:17;;;;;;;;;;;8.30;99.90;;;;;;8389899;28;20366;-73
2022/02/04 07:44:00;;;;;;;;;;;8.20;99.90;;;;;;8386594;28;20008;-73
2022/02/04 07:48:02;;;;;;;;;;;8.20;99.90;;;;;;8368621;28;19963;-73
2022/02/04 07:52:03;;;;;;;;;;;8.20;99.90;;;;;;8372205;28;19924;-73
2022/02/04 07:56:05;;;;;;;;;;;8.20;99.90;;;;;;8371323;28;20035;-73
2022/02/04 08:00:09;;;;;;;;;;;8.20;99.90;;;;;;8389230;28;19925;-73
2022/02/04 08:08:18;;;;;;;;;;;8.10;99.90;;;;;;8390901;28;19968;-73
2022/02/04 08:12:35;;;;;;;;;;;8.10;99.90;;;;;;8380235;28;19925;-73
2022/02/04 08:25:35;;;;;;;;;;;8.20;99.90;;;;;;8382230;28;19931;-73
2022/02/04 08:51:04;;;;;;;;;;;8.30;99.90;;;;;;8388253;28;20205;-73
2022/02/04 08:55:14;;;;;;;;;;;8.40;99.90;;;;;;8369859;28;20449;-73
2022/02/04 09:03:37;;;;;;;;;;;8.40;99.90;;;;;;8374828;28;19928;-73
2022/02/04 09:07:56;;;;;;;;;;;8.50;99.90;;;;;;8382702;28;19993;-73
2022/02/04 09:12:09;;;;;;;;;;;8.60;99.90;;;;;;8371164;28;19928;-73
2022/02/04 09:24:45;;;;;;;;;;;8.80;99.90;;;;;;8386533;28;20396;-74
2022/02/04 09:28:47;;;;;;;;;;;8.80;99.90;;;;;;8374470;28;19968;-74
2022/02/04 09:32:49;;;;;;;;;;;8.80;99.90;;;;;;8391327;28;20428;-73
2022/02/04 09:36:51;;;;;;;;;;;8.80;99.90;;;;;;8390980;28;19932;-73
2022/02/04 09:40:52;;;;;;;;;;;8.70;99.90;;;;;;8390777;28;19929;-73
2022/02/04 09:44:54;;;;;;;;;;;8.70;99.90;;;;;;8383824;28;19924;-74
2022/02/04 09:48:58;;;;;;;;;;;8.70;99.90;;;;;;8387293;28;20039;-73
2022/02/04 10:18:45;;;;;;;;;;;8.80;99.90;;;;;;8389978;28;19963;-73
2022/02/04 10:22:47;;;;;;;;;;;8.90;99.90;;;;;;8365267;28;20387;-73
2022/02/04 10:26:59;;;;;;;;;;;8.90;99.90;;;;;;8382289;28;19987;-74
2022/02/04 10:31:05;;;;;;;;;;;9.10;99.90;;;;;;8372026;28;19963;-73
2022/02/04 10:35:13;;;;;;;;;;;9.10;99.90;;;;;;8386487;28;19972;-73
2022/02/04 10:39:35;;;;;;;;;;;9.10;99.90;;;;;;8392392;28;19932;-73
2022/02/04 10:52:38;;;;;;;;;;;9.20;99.90;;;;;;8387294;28;19932;-73
2022/02/04 11:05:18;;;;;;;;;;;9.20;99.90;;;;;;8381109;28;20395;-73
2022/02/04 11:09:34;;;;;;;;;;;9.20;99.90;;;;;;8370376;28;19978;-73
2022/02/04 11:31:13;;;;;;;;;;;9.30;99.90;;;;;;8386574;28;19979;-73
2022/02/04 11:35:29;;;;;;;;;;;9.40;99.90;;;;;;8384378;28;19960;-73
2022/02/04 11:47:53;;;;;;;;;;;9.30;99.90;;;;;;8390019;28;19925;-73
2022/02/04 11:53:25;;;;;;;;;;;9.20;99.90;;;;;;8371473;28;20230;-73
2022/02/04 11:57:28;;;;;;;;;;;9.10;99.90;;;;;;8373681;28;19925;-73
2022/02/04 12:01:40;;;;;;;;;;;9.10;99.90;;;;;;8382049;28;20160;-72
2022/02/04 12:05:46;;;;;;;;;;;9.10;99.90;;;;;;8385166;28;20063;-72
2022/02/04 12:09:48;;;;;;;;;;;9.10;99.90;;;;;;8388814;28;20464;-72
2022/02/04 12:14:17;;;;;;;;;;;9.10;99.90;;;;;;8374824;28;19947;-72
2022/02/04 12:18:20;;;;;;;;;;;9.10;99.90;;;;;;8379870;28;19971;-72
2022/02/04 12:22:40;;;;;;;;;;;9.10;99.90;;;;;;8392340;28;20063;-72
2022/02/04 12:26:41;;;;;;;;;;;9.10;99.90;;;;;;8368803;28;20016;-72
2022/02/04 12:30:46;;;;;;;;;;;9.10;99.90;;;;;;8382824;28;19983;-72
2022/02/04 12:34:48;;;;;;;;;;;9.10;99.90;;;;;;8365129;28;19924;-72
2022/02/04 12:38:52;;;;;;;;;;;9.10;99.90;;;;;;8386552;28;19980;-72
2022/02/04 12:42:53;;;;;;;;;;;9.10;99.90;;;;;;8389469;28;19968;-73
2022/02/04 12:46:56;;;;;;;;;;;9.10;99.90;;;;;;8380057;28;20007;-72
2022/02/04 12:50:58;;;;;;;;;;;9.10;99.90;;;;;;8387131;28;20399;-72
2022/02/04 12:55:09;;;;;;;;;;;9.10;99.90;;;;;;8385366;28;19931;-72
2022/02/04 12:59:35;;;;;;;;;;;9.00;99.90;;;;;;8370608;28;19967;-72
2022/02/04 13:12:30;;;;;;;;;;;8.60;99.90;;;;;;8384940;28;20479;-72
2022/02/04 13:16:32;;;;;;;;;;;8.50;99.90;;;;;;8391738;28;20432;-72
2022/02/04 13:20:34;;;;;;;;;;;8.30;99.90;;;;;;8391187;28;21244;-72
2022/02/04 13:24:38;;;;;;;;;;;8.20;99.90;;;;;;8389045;28;20395;-72
2022/02/04 13:28:44;;;;;;;;;;;8.10;99.90;;;;;;8388710;28;20408;-72
2022/02/04 13:32:45;;;;;;;;;;;8.10;99.90;;;;;;8382608;28;19921;-72
2022/02/04 13:36:52;;;;;;;;;;;8.00;99.90;;;;;;8371450;28;19950;-72
2022/02/04 13:41:04;;;;;;;;;;;7.90;99.90;;;;;;8371511;28;19924;-71
2022/02/04 13:45:28;;;;;;;;;;;7.90;99.90;;;;;;8384081;28;19931;-71
2022/02/04 13:53:46;;;;;;;;;;;7.80;99.90;;;;;;8378678;28;19927;-72
2022/02/04 13:58:14;;;;;;;;;;;7.70;99.90;;;;;;8370519;28;19932;-72
2022/02/04 14:02:19;;;;;;;;;;;7.70;99.90;;;;;;8382583;28;19921;-72
2022/02/04 14:06:25;;;;;;;;;;;7.60;99.90;;;;;;8380639;28;19963;-72
2022/02/04 14:10:37;;;;;;;;;;;7.20;99.90;;;;;;8386464;28;19975;-72
2022/02/04 14:14:40;;;;;;;;;;;6.80;99.90;;;;;;8385768;28;19971;-72
2022/02/04 14:18:41;;;;;;;;;;;6.50;99.90;;;;;;8391020;28;19931;-72
2022/02/04 14:22:44;;;;;;;;;;;6.30;99.90;;;;;;8382817;28;20017;-72
2022/02/04 14:26:49;;;;;;;;;;;6.20;99.90;;;;;;8371488;28;19920;-72
2022/02/04 14:30:59;;;;;;;;;;;5.90;99.90;;;;;;8390267;28;20284;-72
2022/02/04 14:35:13;;;;;;;;;;;5.70;99.90;;;;;;8386587;28;19924;-72
2022/02/04 14:52:41;;;;;;;;;;;5.10;99.90;;;;;;8384294;28;19920;-72
2022/02/04 15:05:19;;;;;;;;;;;4.90;99.90;;;;;;8390375;28;19931;-72
2022/02/04 15:09:20;;;;;;;;;;;4.90;99.90;;;;;;8389781;28;19952;-72
2022/02/04 15:13:22;;;;;;;;;;;5.00;99.90;;;;;;8382143;28;19921;-72
2022/02/04 15:17:23;;;;;;;;;;;4.90;99.90;;;;;;8373515;28;19931;-72
2022/02/04 15:21:26;;;;;;;;;;;4.90;99.90;;;;;;8388598;28;19927;-72
2022/02/04 15:25:28;;;;;;;;;;;4.90;99.90;;;;;;8396895;28;19921;-72
2022/02/04 15:29:31;;;;;;;;;;;4.80;99.90;;;;;;8374920;28;19921;-72
2022/02/04 15:33:35;;;;;;;;;;;4.80;99.90;;;;;;8376566;28;19959;-72
2022/02/04 15:37:37;;;;;;;;;;;4.80;99.90;;;;;;8386229;28;19971;-72
2022/02/04 15:41:39;;;;;;;;;;;4.80;99.90;;;;;;8372350;28;19974;-72
2022/02/04 15:50:18;;;;;;;;;;;4.90;99.90;;;;;;8357013;28;19951;-72
2022/02/04 16:07:22;;;;;;;;;;;4.70;99.90;;;;;;8372908;28;19987;-72
2022/02/04 16:11:35;;;;;;;;;;;4.70;99.90;;;;;;8376873;28;20380;-72
2022/02/04 16:19:46;;;;;;;;;;;4.60;99.90;;;;;;8364328;28;19920;-72
2022/02/04 16:23:59;;;;;;;;;;;4.50;99.90;;;;;;8371782;28;20044;-72
2022/02/04 16:32:21;;;;;;;;;;;4.50;99.90;;;;;;8362931;28;19952;-72
2022/02/04 16:36:27;;;;;;;;;;;4.50;99.90;;;;;;8353641;28;20276;-72
2022/02/04 16:40:29;;;;;;;;;;;4.50;99.90;;;;;;8358006;28;20340;-72
2022/02/04 16:44:31;;;;;;;;;;;4.50;99.90;;;;;;8362978;28;19963;-72
2022/02/04 16:48:34;;;;;;;;;;;4.50;99.90;;;;;;8360388;28;19960;-73
2022/02/04 16:52:35;;;;;;;;;;;4.50;99.90;;;;;;8358430;28;21240;-73
2022/02/04 16:56:37;;;;;;;;;;;4.40;99.90;;;;;;8345252;28;19928;-73
2022/02/04 17:00:39;;;;;;;;;;;4.50;99.90;;;;;;8357739;28;20031;-69
2022/02/04 17:04:40;;;;;;;;;;;4.40;99.90;;;;;;8355840;28;24492;-68
2022/02/04 17:08:47;;;;;;;;;;;4.20;99.90;;;;;;8356075;28;19943;-68
2022/02/04 17:13:04;;;;;;;;;;;4.20;99.90;;;;;;8353963;28;20004;-68
2022/02/04 17:17:06;;;;;;;;;;;4.20;99.90;;;;;;8357363;28;19960;-68
2022/02/04 17:21:08;;;;;;;;;;;4.10;99.90;;;;;;8340733;28;19956;-68
2022/02/04 17:25:15;;;;;;;;;;;4.10;99.90;;;;;;8372328;28;20023;-68
2022/02/04 17:29:17;;;;;;;;;;;4.00;99.90;;;;;;8352495;28;20380;-69
2022/02/04 17:33:19;;;;;;;;;;;4.00;99.90;;;;;;8353692;28;20024;-68
2022/02/04 17:37:20;;;;;;;;;;;4.00;99.90;;;;;;8354498;28;20019;-68
2022/02/04 17:41:22;;;;;;;;;;;4.00;99.90;;;;;;8351974;28;20363;-68
2022/02/04 17:45:23;;;;;;;;;;;4.00;99.90;;;;;;8353981;28;19956;-68
2022/02/04 17:49:32;;;;;;;;;;;3.90;99.90;;;;;;8362829;28;19990;-68
2022/02/04 17:53:49;;;;;;;;;;;3.90;99.90;;;;;;8344815;28;20015;-68
2022/02/04 17:57:55;;;;;;;;;;;3.90;99.90;;;;;;8358548;28;20347;-68
2022/02/04 18:02:12;;;;;;;;;;;3.90;99.90;;;;;;8368475;28;19921;-68
2022/02/04 18:06:53;;;;;;;;;;;4.00;99.90;;;;;;8360231;28;20035;-68
2022/02/04 18:10:47;;;;;;;;;;;4.00;99.90;;;;;;8358633;28;20358;-68
2022/02/04 18:14:49;;;;;;;;;;;4.00;99.90;;;;;;8357567;28;20411;-68
2022/02/04 18:18:51;;;;;;;;;;;4.00;99.90;;;;;;8358799;28;20007;-68
2022/02/04 18:22:53;;;;;;;;;;;4.00;99.90;;;;;;8362304;28;19944;-68
2022/02/04 18:26:54;;;;;;;;;;;4.00;99.90;;;;;;8361457;28;19924;-68
2022/02/04 18:30:56;;;;;;;;;;;4.00;99.90;;;;;;8360209;28;20015;-68
2022/02/04 18:34:58;;;;;;;;;;;4.00;99.90;;;;;;8345307;28;20011;-68
2022/02/04 19:00:03;;;;;;;;;;;4.20;99.90;;;;;;8357160;28;19928;-68
2022/02/04 19:04:09;;;;;;;;;;;4.20;99.90;;;;;;8363106;28;20038;-68
2022/02/04 19:08:17;;;;;;;;;;;4.30;99.90;;;;;;8365122;28;20422;-68
2022/02/04 19:12:28;;;;;;;;;;;4.30;99.90;;;;;;8358243;28;20435;-68
2022/02/04 19:20:52;;;;;;;;;;;4.30;99.90;;;;;;8370001;28;20363;-68
2022/02/04 19:24:57;;;;;;;;;;;4.30;99.90;;;;;;8361247;28;20058;-68
2022/02/04 19:28:59;;;;;;;;;;;4.40;99.90;;;;;;8368837;28;24596;-69
2022/02/04 19:33:00;;;;;;;;;;;4.50;99.90;;;;;;8362846;28;20073;-68
2022/02/04 19:37:02;;;;;;;;;;;4.60;99.90;;;;;;8362182;28;20233;-68
2022/02/04 19:41:04;;;;;;;;;;;4.60;99.90;;;;;;8366367;28;19959;-68
2022/02/04 19:45:11;;;;;;;;;;;4.70;99.90;;;;;;8362127;28;19998;-68
2022/02/04 19:49:19;;;;;;;;;;;4.80;99.90;;;;;;8359079;28;19958;-68
2022/02/04 19:53:47;;;;;;;;;;;4.80;99.90;;;;;;8346679;28;19928;-68
2022/02/04 20:23:57;;;;;;;;;;;4.70;99.90;;;;;;8369808;28;20356;-68
2022/02/04 20:28:06;;;;;;;;;;;4.80;99.90;;;;;;8364827;28;20294;-68
2022/02/04 20:32:07;;;;;;;;;;;4.80;99.90;;;;;;8366370;28;20750;-68
2022/02/04 20:36:09;;;;;;;;;;;4.90;99.90;;;;;;8362361;28;20010;-68
2022/02/04 20:44:13;;;;;;;;;;;5.00;99.90;;;;;;8365219;28;20038;-68
2022/02/04 20:48:15;;;;;;;;;;;5.10;99.90;;;;;;8350489;28;19969;-68
2022/02/04 20:52:16;;;;;;;;;;;5.20;99.90;;;;;;8366259;28;19944;-68
2022/02/04 20:56:18;;;;;;;;;;;5.20;99.90;;;;;;8364870;28;20352;-69
2022/02/04 21:00:26;;;;;;;;;;;5.30;99.90;;;;;;8366016;28;20695;-69
2022/02/04 21:04:32;;;;;;;;;;;5.30;99.90;;;;;;8367233;28;19942;-68
2022/02/04 21:09:15;;;;;;;;;;;5.30;99.90;;;;;;8368459;28;20011;-68
2022/02/04 21:17:20;;;;;;;;;;;5.20;99.90;;;;;;8366795;28;19940;-69
2022/02/04 21:21:34;;;;;;;;;;;5.30;99.90;;;;;;8361452;28;20015;-69
2022/02/04 21:25:37;;;;;;;;;;;5.30;99.90;;;;;;8352715;28;20432;-69
2022/02/04 21:29:40;;;;;;;;;;;5.20;99.90;;;;;;8363425;28;20269;-68
2022/02/04 21:37:44;;;;;;;;;;;5.20;99.90;;;;;;8362182;28;19967;-68
2022/02/04 21:41:45;;;;;;;;;;;5.10;99.90;;;;;;8371783;28;19974;-68
2022/02/04 21:45:49;;;;;;;;;;;5.10;99.90;;;;;;8363668;28;19924;-68
2022/02/04 21:49:51;;;;;;;;;;;5.10;99.90;;;;;;8364857;28;19966;-68
2022/02/04 21:53:53;;;;;;;;;;;5.10;99.90;;;;;;8364492;28;19920;-68
2022/02/04 21:57:55;;;;;;;;;;;5.10;99.90;;;;;;8355448;28;19924;-68
2022/02/04 22:01:56;;;;;;;;;;;5.00;99.90;;;;;;8372910;28;20015;-68
2022/02/04 22:05:58;;;;;;;;;;;5.00;99.90;;;;;;8387291;28;20023;-68
2022/02/04 22:10:20;;;;;;;;;;;5.00;99.90;;;;;;8390673;28;19982;-69
2022/02/04 22:14:49;;;;;;;;;;;5.00;99.90;;;;;;8386072;28;19939;-68
2022/02/04 22:23:07;;;;;;;;;;;5.00;99.90;;;;;;8390719;28;20343;-68
2022/02/04 22:27:12;;;;;;;;;;;5.00;99.90;;;;;;8396939;28;19960;-68
2022/02/04 22:31:20;;;;;;;;;;;5.00;99.90;;;;;;8388654;28;19927;-68
2022/02/04 23:01:00;;;;;;;;;;;5.10;99.90;;;;;;8387586;28;22345;-68
2022/02/04 23:05:01;;;;;;;;;;;5.10;99.90;;;;;;8376571;28;19936;-69
2022/02/04 23:09:04;;;;;;;;;;;5.20;99.90;;;;;;8398824;28;20354;-68
2022/02/04 23:13:14;;;;;;;;;;;5.20;99.90;;;;;;8374386;28;20359;-68
2022/02/04 23:17:29;;;;;;;;;;;5.20;99.90;;;;;;8376782;28;19960;-68
2022/02/04 23:21:38;;;;;;;;;;;5.20;99.90;;;;;;8394808;28;20332;-68
2022/02/04 23:25:48;;;;;;;;;;;5.20;99.90;;;;;;8395308;28;19936;-68
2022/02/04 23:50:44;;;;;;;;;;;5.40;99.90;;;;;;8390797;28;19921;-69
2022/02/04 23:54:47;;;;;;;;;;;5.40;99.90;;;;;;8391714;28;19984;-68
2022/02/04 23:59:11;;;;;;;;;;;5.40;99.90;;;;;;8389164;28;19960;-69
